createdAt,value
2023-01-02T00:04:41.662Z,57.30
2023-01-02T00:09:42.317Z,57.84
2023-01-02T00:14:42.992Z,57.90
2023-01-02T00:19:44.998Z,57.82
2023-01-02T00:24:45.638Z,57.83
2023-01-02T00:29:46.290Z,57.96
2023-01-02T00:34:48.448Z,57.69
2023-01-02T00:39:49.097Z,57.12
2023-01-02T00:44:50.390Z,57.53
2023-01-02T00:49:52.412Z,56.80
2023-01-02T00:54:53.080Z,56.84
2023-01-02T00:59:53.816Z,56.15
2023-01-02T01:04:55.877Z,55.65
2023-01-02T01:09:56.573Z,55.42
2023-01-02T01:14:57.267Z,55.71
2023-01-02T01:19:59.258Z,55.31
2023-01-02T01:24:59.975Z,55.67
2023-01-02T01:30:00.664Z,56.06
2023-01-02T01:35:02.666Z,55.48
2023-01-02T01:40:03.343Z,55.84
2023-01-02T01:45:04.818Z,55.89
2023-01-02T01:50:11.432Z,55.43
2023-01-02T01:55:17.429Z,55.44
2023-01-02T02:00:19.339Z,54.93
2023-01-02T02:05:27.139Z,54.60
2023-01-02T02:10:27.820Z,54.44
2023-01-02T02:15:38.395Z,54.67
2023-01-02T02:20:49.680Z,54.92
2023-01-02T02:26:12.371Z,55.23
2023-01-02T02:31:21.473Z,55.20
2023-01-02T02:36:31.254Z,54.38
2023-01-02T02:41:36.708Z,55.16
2023-01-02T02:46:50.001Z,54.54
2023-01-02T02:51:57.521Z,54.62
2023-01-02T02:57:00.620Z,54.98
2023-01-02T03:02:03.183Z,54.42
2023-01-02T03:07:17.526Z,54.75
2023-01-02T03:12:26.743Z,55.08
2023-01-02T03:17:34.804Z,54.82
2023-01-02T03:22:39.103Z,54.75
2023-01-02T03:27:44.839Z,54.85
2023-01-02T03:32:51.376Z,55.17
2023-01-02T03:37:57.491Z,55.42
2023-01-02T03:43:04.443Z,55.26
2023-01-02T03:48:15.499Z,54.46
2023-01-02T03:53:16.570Z,54.30
2023-01-02T03:58:25.238Z,54.42
2023-01-02T04:03:33.117Z,55.09
2023-01-02T04:08:38.910Z,54.98
2023-01-02T04:13:43.216Z,55.22
2023-01-02T04:18:49.511Z,55.00
2023-01-02T04:23:53.210Z,54.53
2023-01-02T04:28:54.206Z,54.63
2023-01-02T04:34:00.020Z,55.12
2023-01-02T04:39:00.680Z,54.00
2023-01-02T04:44:01.912Z,54.80
2023-01-02T04:49:04.036Z,54.41
2023-01-02T04:54:04.930Z,54.22
2023-01-02T04:59:05.630Z,54.47
2023-01-02T05:04:07.796Z,54.83
2023-01-02T05:09:08.566Z,54.53
2023-01-02T05:14:09.456Z,54.95
2023-01-02T05:19:11.450Z,55.36
2023-01-02T05:24:12.233Z,55.46
2023-01-02T05:29:12.894Z,56.49
2023-01-02T05:34:16.613Z,60.12
2023-01-02T05:39:17.259Z,56.34
2023-01-02T05:44:17.949Z,56.65
2023-01-02T05:49:19.943Z,57.19
2023-01-02T05:54:20.959Z,56.97
2023-01-02T05:59:21.633Z,57.08
2023-01-02T06:04:23.643Z,57.35
2023-01-02T06:09:24.376Z,57.85
2023-01-02T06:14:25.143Z,57.61
2023-01-02T06:19:27.146Z,57.63
2023-01-02T06:24:28.742Z,57.49
2023-01-02T06:29:29.582Z,57.29
2023-01-02T06:34:31.559Z,58.18
2023-01-02T06:39:32.224Z,59.04
2023-01-02T06:44:32.872Z,58.99
2023-01-02T06:49:34.906Z,59.82
2023-01-02T06:54:35.621Z,59.38
2023-01-02T06:59:36.273Z,59.56
2023-01-02T07:04:38.281Z,59.68
2023-01-02T07:09:38.969Z,60.60
2023-01-02T07:14:39.610Z,61.10
2023-01-02T07:19:41.683Z,61.52
2023-01-02T07:24:42.397Z,61.58
2023-01-02T07:29:43.053Z,62.50
2023-01-02T07:34:45.040Z,62.05
2023-01-02T07:39:46.729Z,62.92
2023-01-02T07:44:47.404Z,63.24
2023-01-02T07:49:49.415Z,62.65
2023-01-02T07:54:50.076Z,62.24
2023-01-02T07:59:50.952Z,61.70
2023-01-02T08:04:53.014Z,62.41
2023-01-02T08:09:53.867Z,62.65
2023-01-02T08:14:54.953Z,62.71
2023-01-02T08:20:00.355Z,62.58
2023-01-02T08:25:06.830Z,61.98
2023-01-02T08:30:08.691Z,62.12
2023-01-02T08:35:11.058Z,62.37
2023-01-02T08:40:12.929Z,61.31
2023-01-02T08:45:13.590Z,60.78
2023-01-02T08:50:15.804Z,60.78
2023-01-02T08:55:16.570Z,61.22
2023-01-02T09:00:17.940Z,61.37
2023-01-02T09:05:19.926Z,61.23
2023-01-02T09:10:20.732Z,61.05
2023-01-02T09:15:21.452Z,60.69
2023-01-02T09:20:23.574Z,60.49
2023-01-02T09:25:25.139Z,61.20
2023-01-02T09:30:27.879Z,60.93
2023-01-02T09:35:29.892Z,59.15
2023-01-02T09:40:30.882Z,59.59
2023-01-02T09:45:31.992Z,59.66
2023-01-02T09:50:34.007Z,59.68
2023-01-02T09:55:43.666Z,59.05
2023-01-02T10:00:47.460Z,58.94
2023-01-02T10:06:02.147Z,59.83
2023-01-02T10:11:16.294Z,59.82
2023-01-02T10:16:20.951Z,58.75
2023-01-02T10:21:27.500Z,58.44
2023-01-02T10:26:33.846Z,58.38
2023-01-02T10:31:57.976Z,59.17
2023-01-02T10:37:06.091Z,58.32
2023-01-02T10:42:13.371Z,58.09
2023-01-02T10:47:20.613Z,58.21
2023-01-02T10:52:28.470Z,58.82
2023-01-02T10:57:40.898Z,58.18
2023-01-02T11:02:42.314Z,57.61
2023-01-02T11:07:49.747Z,58.53
2023-01-02T11:12:50.601Z,58.76
2023-01-02T11:17:51.336Z,57.21
2023-01-02T11:22:56.493Z,57.55
2023-01-02T11:28:01.899Z,58.85
2023-01-02T11:33:07.718Z,58.48
2023-01-02T11:38:23.203Z,59.01
2023-01-02T11:43:53.078Z,58.93
2023-01-02T11:48:59.126Z,58.45
2023-01-02T11:54:05.465Z,58.42
2023-01-02T11:59:13.643Z,58.86
2023-01-02T12:04:15.529Z,58.29
2023-01-02T12:09:29.184Z,58.19
2023-01-02T12:14:54.206Z,57.04
2023-01-02T12:20:07.178Z,56.87
2023-01-02T12:25:28.171Z,56.66
2023-01-02T12:30:32.872Z,57.43
2023-01-02T12:35:52.821Z,56.67
2023-01-02T12:41:06.004Z,56.43
2023-01-02T12:46:18.370Z,56.15
2023-01-02T12:51:23.674Z,56.88
2023-01-02T12:56:34.243Z,57.12
2023-01-02T13:01:40.795Z,56.61
2023-01-02T13:06:50.091Z,57.13
2023-01-02T13:11:59.749Z,57.63
2023-01-02T13:17:22.093Z,56.80
2023-01-02T13:22:34.975Z,56.85
2023-01-02T13:27:38.314Z,56.92
2023-01-02T13:32:40.232Z,57.27
2023-01-02T13:37:43.822Z,57.63
2023-01-02T13:43:00.661Z,57.44
2023-01-02T13:48:05.069Z,57.86
2023-01-02T13:53:08.764Z,58.16
2023-01-02T13:58:42.040Z,58.11
2023-01-02T14:03:42.838Z,57.50
2023-01-02T14:09:11.394Z,58.47
2023-01-02T14:14:16.178Z,58.09
2023-01-02T14:19:23.416Z,58.10
2023-01-02T14:24:30.081Z,58.70
2023-01-02T14:29:40.750Z,58.24
2023-01-02T14:34:45.883Z,58.05
2023-01-02T14:39:46.717Z,58.59
2023-01-02T14:44:54.848Z,62.41
2023-01-02T14:50:00.378Z,60.09
2023-01-02T14:55:07.733Z,59.94
2023-01-02T15:00:22.815Z,60.51
2023-01-02T15:05:34.642Z,60.91
2023-01-02T15:10:55.505Z,60.23
2023-01-02T15:16:00.885Z,60.35
2023-01-02T15:21:08.069Z,61.46
2023-01-02T15:26:32.712Z,61.09
2023-01-02T15:31:40.097Z,61.03
2023-01-02T15:36:43.289Z,61.25
2023-01-02T15:41:47.135Z,61.69
2023-01-02T15:46:49.334Z,62.02
2023-01-02T15:51:50.549Z,61.00
2023-01-02T15:56:51.236Z,62.12
2023-01-02T16:01:53.780Z,61.73
2023-01-02T16:06:55.639Z,62.07
2023-01-02T16:11:58.509Z,61.23
2023-01-02T16:17:05.090Z,61.54
2023-01-02T16:22:14.685Z,62.00
2023-01-02T16:27:24.391Z,62.56
2023-01-02T16:32:29.202Z,62.17
2023-01-02T16:37:35.236Z,62.20
2023-01-02T16:42:38.957Z,61.67
2023-01-02T16:47:44.649Z,62.23
2023-01-02T16:52:45.873Z,62.12
2023-01-02T16:57:47.278Z,61.82
2023-01-02T17:02:50.573Z,61.92
2023-01-02T17:07:51.454Z,61.38
2023-01-02T17:12:52.183Z,56.60
2023-01-02T17:17:54.318Z,54.44
2023-01-02T17:22:55.354Z,51.87
2023-01-02T17:27:56.229Z,50.32
2023-01-02T17:33:03.799Z,49.79
2023-01-02T17:38:05.210Z,49.12
2023-01-02T17:43:06.210Z,49.35
2023-01-02T17:48:12.164Z,49.47
2023-01-02T17:53:14.178Z,50.18
2023-01-02T17:58:14.897Z,51.28
2023-01-02T18:03:16.919Z,52.75
2023-01-02T18:08:17.653Z,53.00
2023-01-02T18:13:18.423Z,52.92
2023-01-02T18:18:24.084Z,51.63
2023-01-02T18:23:26.637Z,49.99
2023-01-02T18:28:27.585Z,49.56
2023-01-02T18:33:30.751Z,49.68
2023-01-02T18:38:35.090Z,49.42
2023-01-02T18:43:36.918Z,49.85
2023-01-02T18:48:40.790Z,50.17
2023-01-02T18:53:47.243Z,50.43
2023-01-02T18:58:56.634Z,50.44
2023-01-02T19:04:27.187Z,50.49
2023-01-02T19:09:31.747Z,51.25
2023-01-02T19:14:39.509Z,50.92
2023-01-02T19:19:41.690Z,51.71
2023-01-02T19:24:42.532Z,52.12
2023-01-02T19:29:48.641Z,52.29
2023-01-02T19:34:51.847Z,52.27
2023-01-02T19:39:54.285Z,51.47
2023-01-02T19:44:56.736Z,52.16
2023-01-02T19:50:00.085Z,52.30
2023-01-02T19:55:00.842Z,52.28
2023-01-02T20:00:01.996Z,52.75
2023-01-02T20:05:20.737Z,52.73
2023-01-02T20:10:22.755Z,52.51
2023-01-02T20:15:25.255Z,55.38
2023-01-02T20:20:29.581Z,61.02
2023-01-02T20:25:30.293Z,67.07
2023-01-02T20:30:31.076Z,68.95
2023-01-02T20:35:33.159Z,73.70
2023-01-02T20:40:33.863Z,77.17
2023-01-02T20:45:35.964Z,78.17
2023-01-02T20:50:38.003Z,79.58
2023-01-02T20:55:40.174Z,80.96
2023-01-02T21:00:40.930Z,81.99
2023-01-02T21:05:42.985Z,83.05
2023-01-02T21:10:44.031Z,83.96
2023-01-02T21:15:46.947Z,84.17
2023-01-02T21:20:50.664Z,84.71
2023-01-02T21:25:51.888Z,85.11
2023-01-02T21:30:53.365Z,84.85
2023-01-02T21:35:57.319Z,84.48
2023-01-02T21:41:20.356Z,83.91
2023-01-02T21:46:21.163Z,84.80
2023-01-02T21:51:27.711Z,84.16
2023-01-02T21:56:32.237Z,84.77
2023-01-02T22:01:33.187Z,85.21
2023-01-02T22:06:36.736Z,85.21
2023-01-02T22:11:57.750Z,85.22
2023-01-02T22:17:02.106Z,85.29
2023-01-02T22:22:05.076Z,85.88
2023-01-02T22:27:07.641Z,85.54
2023-01-02T22:32:09.016Z,85.71
2023-01-02T22:37:11.281Z,85.90
2023-01-02T22:42:59.629Z,85.51
2023-01-02T22:47:59.407Z,85.29
2023-01-02T22:53:01.662Z,84.65
2023-01-02T22:58:02.311Z,84.69
2023-01-02T23:03:02.989Z,84.30
2023-01-02T23:08:05.552Z,82.50
2023-01-02T23:13:06.397Z,82.18
2023-01-02T23:18:24.791Z,79.89
2023-01-02T23:23:26.845Z,78.18
2023-01-02T23:29:04.438Z,78.71
2023-01-02T23:33:48.217Z,78.44
2023-01-02T23:38:51.763Z,77.85
2023-01-02T23:43:52.449Z,78.40
2023-01-02T23:48:53.196Z,78.15
2023-01-02T23:53:55.193Z,78.14
2023-01-02T23:58:57.191Z,77.78
